sensor_id;sensor_type;location;lat;lon;timestamp;pressure;altitude;pressure_sealevel;temperature;humidity
13719;BME280;6931;51.100;17.068;2022-07-05T00:00:08;100259.50;;;21.26;81.23
13719;BME280;6931;51.100;17.068;2022-07-05T00:02:35;100247.53;;;21.31;81.07
13719;BME280;6931;51.100;17.068;2022-07-05T00:05:03;100245.34;;;21.35;80.77
13719;BME280;6931;51.100;17.068;2022-07-05T00:07:29;100251.47;;;21.24;80.79
13719;BME280;6931;51.100;17.068;2022-07-05T00:09:57;100242.97;;;21.33;81.04
13719;BME280;6931;51.100;17.068;2022-07-05T00:12:29;100239.97;;;21.37;81.21
13719;BME280;6931;51.100;17.068;2022-07-05T00:14:59;100242.81;;;21.55;80.31
13719;BME280;6931;51.100;17.068;2022-07-05T00:17:26;100241.28;;;21.54;80.02
13719;BME280;6931;51.100;17.068;2022-07-05T00:19:53;100237.78;;;21.41;81.11
13719;BME280;6931;51.100;17.068;2022-07-05T00:22:20;100252.13;;;21.46;81.00
13719;BME280;6931;51.100;17.068;2022-07-05T00:24:50;100247.06;;;21.32;80.39
13719;BME280;6931;51.100;17.068;2022-07-05T00:27:17;100238.22;;;21.30;81.05
13719;BME280;6931;51.100;17.068;2022-07-05T00:29:44;100243.88;;;21.12;82.05
13719;BME280;6931;51.100;17.068;2022-07-05T00:32:11;100243.59;;;21.37;81.31
13719;BME280;6931;51.100;17.068;2022-07-05T00:34:38;100236.66;;;21.20;81.46
13719;BME280;6931;51.100;17.068;2022-07-05T00:37:05;100236.94;;;21.04;82.41
13719;BME280;6931;51.100;17.068;2022-07-05T00:39:32;100240.03;;;20.97;83.02
13719;BME280;6931;51.100;17.068;2022-07-05T00:41:58;100244.94;;;20.97;82.03
13719;BME280;6931;51.100;17.068;2022-07-05T00:44:32;100245.81;;;20.76;81.25
13719;BME280;6931;51.100;17.068;2022-07-05T00:46:59;100243.09;;;20.72;81.38
13719;BME280;6931;51.100;17.068;2022-07-05T00:49:26;100219.69;;;20.81;79.26
13719;BME280;6931;51.100;17.068;2022-07-05T00:51:52;100226.47;;;20.92;80.05
13719;BME280;6931;51.100;17.068;2022-07-05T00:54:40;100237.31;;;20.76;79.69
13719;BME280;6931;51.100;17.068;2022-07-05T00:57:07;100235.16;;;20.98;80.76
13719;BME280;6931;51.100;17.068;2022-07-05T00:59:34;100241.88;;;20.82;81.26
13719;BME280;6931;51.100;17.068;2022-07-05T01:02:01;100235.69;;;21.05;80.24
13719;BME280;6931;51.100;17.068;2022-07-05T01:04:27;100235.88;;;20.80;78.90
13719;BME280;6931;51.100;17.068;2022-07-05T01:06:55;100234.47;;;20.76;80.66
13719;BME280;6931;51.100;17.068;2022-07-05T01:09:23;100233.06;;;20.80;81.34
13719;BME280;6931;51.100;17.068;2022-07-05T01:11:50;100234.31;;;20.79;82.92
13719;BME280;6931;51.100;17.068;2022-07-05T01:14:19;100227.63;;;20.55;81.63
13719;BME280;6931;51.100;17.068;2022-07-05T01:16:47;100216.03;;;20.31;78.72
13719;BME280;6931;51.100;17.068;2022-07-05T01:19:14;100208.84;;;20.39;78.93
13719;BME280;6931;51.100;17.068;2022-07-05T01:21:42;100205.50;;;20.32;78.24
13719;BME280;6931;51.100;17.068;2022-07-05T01:24:11;100212.88;;;20.29;79.07
13719;BME280;6931;51.100;17.068;2022-07-05T01:26:39;100209.41;;;20.25;78.34
13719;BME280;6931;51.100;17.068;2022-07-05T01:29:08;100222.09;;;20.21;77.07
13719;BME280;6931;51.100;17.068;2022-07-05T01:31:41;100206.31;;;20.41;78.19
13719;BME280;6931;51.100;17.068;2022-07-05T01:34:08;100215.41;;;20.27;77.04
13719;BME280;6931;51.100;17.068;2022-07-05T01:36:35;100216.19;;;20.06;78.16
13719;BME280;6931;51.100;17.068;2022-07-05T01:39:03;100222.16;;;20.30;81.87
13719;BME280;6931;51.100;17.068;2022-07-05T01:41:30;100223.03;;;20.18;82.08
13719;BME280;6931;51.100;17.068;2022-07-05T01:43:58;100225.59;;;20.25;79.01
13719;BME280;6931;51.100;17.068;2022-07-05T01:46:31;100214.00;;;20.32;79.33
13719;BME280;6931;51.100;17.068;2022-07-05T01:49:06;100227.22;;;20.35;79.66
13719;BME280;6931;51.100;17.068;2022-07-05T01:51:39;100219.78;;;20.28;78.57
13719;BME280;6931;51.100;17.068;2022-07-05T01:54:08;100231.84;;;20.20;79.17
13719;BME280;6931;51.100;17.068;2022-07-05T01:56:37;100241.47;;;20.22;79.65
13719;BME280;6931;51.100;17.068;2022-07-05T01:59:06;100247.94;;;20.32;79.04
13719;BME280;6931;51.100;17.068;2022-07-05T02:01:37;100243.50;;;20.22;79.53
13719;BME280;6931;51.100;17.068;2022-07-05T02:04:06;100236.72;;;20.19;77.51
13719;BME280;6931;51.100;17.068;2022-07-05T02:06:34;100208.16;;;20.05;78.20
13719;BME280;6931;51.100;17.068;2022-07-05T02:09:02;100234.69;;;20.20;78.94
13719;BME280;6931;51.100;17.068;2022-07-05T02:11:29;100230.22;;;20.40;79.54
13719;BME280;6931;51.100;17.068;2022-07-05T02:13:59;100228.81;;;20.45;79.60
13719;BME280;6931;51.100;17.068;2022-07-05T02:16:27;100232.59;;;20.42;80.05
13719;BME280;6931;51.100;17.068;2022-07-05T02:18:55;100229.41;;;20.31;78.23
13719;BME280;6931;51.100;17.068;2022-07-05T02:21:22;100234.94;;;20.43;77.34
13719;BME280;6931;51.100;17.068;2022-07-05T02:23:49;100238.81;;;20.59;77.54
13719;BME280;6931;51.100;17.068;2022-07-05T02:26:16;100243.50;;;20.52;78.78
13719;BME280;6931;51.100;17.068;2022-07-05T02:28:43;100246.13;;;20.38;78.70
13719;BME280;6931;51.100;17.068;2022-07-05T02:31:10;100241.13;;;20.51;78.91
13719;BME280;6931;51.100;17.068;2022-07-05T02:33:37;100249.28;;;20.49;77.53
13719;BME280;6931;51.100;17.068;2022-07-05T02:36:11;100245.72;;;20.58;78.19
13719;BME280;6931;51.100;17.068;2022-07-05T02:38:39;100253.88;;;20.56;78.46
13719;BME280;6931;51.100;17.068;2022-07-05T02:41:10;100258.81;;;20.73;78.63
13719;BME280;6931;51.100;17.068;2022-07-05T02:43:39;100257.47;;;20.87;78.70
13719;BME280;6931;51.100;17.068;2022-07-05T02:46:07;100262.69;;;20.88;78.76
13719;BME280;6931;51.100;17.068;2022-07-05T02:48:35;100263.84;;;21.00;78.77
13719;BME280;6931;51.100;17.068;2022-07-05T02:51:03;100258.53;;;20.80;79.46
13719;BME280;6931;51.100;17.068;2022-07-05T02:53:30;100258.03;;;20.64;79.41
13719;BME280;6931;51.100;17.068;2022-07-05T02:55:57;100259.72;;;20.61;79.52
13719;BME280;6931;51.100;17.068;2022-07-05T02:58:24;100265.75;;;20.41;81.40
13719;BME280;6931;51.100;17.068;2022-07-05T03:00:51;100266.69;;;20.69;80.35
13719;BME280;6931;51.100;17.068;2022-07-05T03:03:18;100273.53;;;20.50;81.68
13719;BME280;6931;51.100;17.068;2022-07-05T03:05:45;100273.66;;;20.46;81.72
13719;BME280;6931;51.100;17.068;2022-07-05T03:08:12;100265.38;;;20.61;80.04
13719;BME280;6931;51.100;17.068;2022-07-05T03:10:39;100268.97;;;20.52;79.82
13719;BME280;6931;51.100;17.068;2022-07-05T03:13:06;100279.31;;;20.46;77.82
13719;BME280;6931;51.100;17.068;2022-07-05T03:15:33;100267.28;;;20.33;80.01
13719;BME280;6931;51.100;17.068;2022-07-05T03:18:00;100282.28;;;20.43;80.41
13719;BME280;6931;51.100;17.068;2022-07-05T03:20:26;100278.75;;;20.08;78.16
13719;BME280;6931;51.100;17.068;2022-07-05T03:22:53;100278.38;;;20.19;77.47
13719;BME280;6931;51.100;17.068;2022-07-05T03:25:20;100274.63;;;20.22;77.50
13719;BME280;6931;51.100;17.068;2022-07-05T03:27:46;100286.00;;;20.31;77.34
13719;BME280;6931;51.100;17.068;2022-07-05T03:30:13;100287.50;;;20.01;79.56
13719;BME280;6931;51.100;17.068;2022-07-05T03:32:40;100298.53;;;20.08;81.86
13719;BME280;6931;51.100;17.068;2022-07-05T03:35:07;100308.22;;;20.20;81.55
13719;BME280;6931;51.100;17.068;2022-07-05T03:37:34;100313.81;;;20.32;80.93
13719;BME280;6931;51.100;17.068;2022-07-05T03:40:01;100322.19;;;20.36;79.44
13719;BME280;6931;51.100;17.068;2022-07-05T03:42:28;100319.78;;;20.13;80.43
13719;BME280;6931;51.100;17.068;2022-07-05T03:44:54;100323.34;;;20.47;79.71
13719;BME280;6931;51.100;17.068;2022-07-05T03:47:21;100328.47;;;20.62;78.92
13719;BME280;6931;51.100;17.068;2022-07-05T03:49:48;100328.94;;;20.60;78.02
13719;BME280;6931;51.100;17.068;2022-07-05T03:52:14;100322.09;;;20.79;77.85
13719;BME280;6931;51.100;17.068;2022-07-05T03:54:41;100338.34;;;20.57;78.55
13719;BME280;6931;51.100;17.068;2022-07-05T03:57:12;100335.31;;;20.52;80.22
13719;BME280;6931;51.100;17.068;2022-07-05T03:59:39;100349.69;;;20.57;79.39
13719;BME280;6931;51.100;17.068;2022-07-05T04:02:07;100347.47;;;20.61;78.23
13719;BME280;6931;51.100;17.068;2022-07-05T04:04:34;100348.09;;;20.56;77.93
13719;BME280;6931;51.100;17.068;2022-07-05T04:07:00;100351.31;;;20.67;78.66
13719;BME280;6931;51.100;17.068;2022-07-05T04:09:27;100356.91;;;20.58;79.69
13719;BME280;6931;51.100;17.068;2022-07-05T04:11:54;100351.72;;;20.57;80.94
13719;BME280;6931;51.100;17.068;2022-07-05T04:14:21;100364.22;;;20.46;80.53
13719;BME280;6931;51.100;17.068;2022-07-05T04:16:48;100355.22;;;20.39;80.40
13719;BME280;6931;51.100;17.068;2022-07-05T04:19:14;100353.78;;;20.34;82.66
13719;BME280;6931;51.100;17.068;2022-07-05T04:21:42;100349.88;;;20.19;82.77
13719;BME280;6931;51.100;17.068;2022-07-05T04:24:09;100349.91;;;20.07;81.77
13719;BME280;6931;51.100;17.068;2022-07-05T04:26:37;100342.78;;;19.81;80.95
13719;BME280;6931;51.100;17.068;2022-07-05T04:29:04;100338.31;;;19.92;80.83
13719;BME280;6931;51.100;17.068;2022-07-05T04:31:30;100331.28;;;19.63;81.53
13719;BME280;6931;51.100;17.068;2022-07-05T04:33:57;100331.09;;;19.57;81.82
13719;BME280;6931;51.100;17.068;2022-07-05T04:36:24;100322.47;;;19.61;81.41
13719;BME280;6931;51.100;17.068;2022-07-05T04:38:51;100323.50;;;19.67;80.86
13719;BME280;6931;51.100;17.068;2022-07-05T04:41:17;100329.16;;;19.67;80.97
13719;BME280;6931;51.100;17.068;2022-07-05T04:43:44;100333.41;;;19.71;80.67
13719;BME280;6931;51.100;17.068;2022-07-05T04:46:10;100327.94;;;19.89;80.21
13719;BME280;6931;51.100;17.068;2022-07-05T04:48:37;100328.69;;;19.68;81.49
13719;BME280;6931;51.100;17.068;2022-07-05T04:51:04;100336.97;;;19.50;81.15
13719;BME280;6931;51.100;17.068;2022-07-05T04:53:31;100344.50;;;19.66;80.79
13719;BME280;6931;51.100;17.068;2022-07-05T04:55:57;100338.50;;;19.64;81.13
13719;BME280;6931;51.100;17.068;2022-07-05T04:58:24;100342.94;;;19.65;81.80
13719;BME280;6931;51.100;17.068;2022-07-05T05:00:50;100327.28;;;19.73;81.82
13719;BME280;6931;51.100;17.068;2022-07-05T05:03:17;100330.56;;;19.84;81.09
13719;BME280;6931;51.100;17.068;2022-07-05T05:05:45;100336.59;;;19.61;82.70
13719;BME280;6931;51.100;17.068;2022-07-05T05:08:12;100341.94;;;19.59;83.30
13719;BME280;6931;51.100;17.068;2022-07-05T05:10:38;100341.69;;;19.66;83.01
13719;BME280;6931;51.100;17.068;2022-07-05T05:13:05;100351.53;;;19.61;82.66
13719;BME280;6931;51.100;17.068;2022-07-05T05:15:32;100351.06;;;19.75;81.89
13719;BME280;6931;51.100;17.068;2022-07-05T05:17:58;100353.38;;;19.89;81.68
13719;BME280;6931;51.100;17.068;2022-07-05T05:20:25;100360.41;;;19.85;82.03
13719;BME280;6931;51.100;17.068;2022-07-05T05:22:52;100360.88;;;19.71;83.08
13719;BME280;6931;51.100;17.068;2022-07-05T05:25:18;100375.81;;;19.71;81.83
13719;BME280;6931;51.100;17.068;2022-07-05T05:27:48;100378.97;;;19.86;81.78
13719;BME280;6931;51.100;17.068;2022-07-05T05:30:18;100377.88;;;20.05;81.39
13719;BME280;6931;51.100;17.068;2022-07-05T05:32:45;100380.28;;;19.94;81.16
13719;BME280;6931;51.100;17.068;2022-07-05T05:35:12;100373.06;;;19.93;81.14
13719;BME280;6931;51.100;17.068;2022-07-05T05:37:49;100383.78;;;19.98;81.20
13719;BME280;6931;51.100;17.068;2022-07-05T05:40:16;100379.00;;;19.95;80.76
13719;BME280;6931;51.100;17.068;2022-07-05T05:42:43;100376.94;;;20.08;81.35
13719;BME280;6931;51.100;17.068;2022-07-05T05:45:10;100369.13;;;20.12;81.61
13719;BME280;6931;51.100;17.068;2022-07-05T05:47:49;100376.19;;;19.95;83.05
13719;BME280;6931;51.100;17.068;2022-07-05T05:52:54;100367.66;;;20.07;83.37
13719;BME280;6931;51.100;17.068;2022-07-05T05:55:22;100382.19;;;19.97;82.23
13719;BME280;6931;51.100;17.068;2022-07-05T05:57:49;100375.41;;;19.94;82.15
13719;BME280;6931;51.100;17.068;2022-07-05T06:00:17;100396.41;;;20.18;83.56
13719;BME280;6931;51.100;17.068;2022-07-05T06:02:45;100393.00;;;20.11;83.11
13719;BME280;6931;51.100;17.068;2022-07-05T06:05:13;100395.81;;;20.23;81.91
13719;BME280;6931;51.100;17.068;2022-07-05T06:07:48;100389.94;;;20.18;81.21
13719;BME280;6931;51.100;17.068;2022-07-05T06:10:17;100394.03;;;20.17;81.16
13719;BME280;6931;51.100;17.068;2022-07-05T06:12:44;100391.06;;;20.42;81.27
13719;BME280;6931;51.100;17.068;2022-07-05T06:15:11;100397.19;;;20.40;81.45
13719;BME280;6931;51.100;17.068;2022-07-05T06:17:38;100408.31;;;20.35;81.72
13719;BME280;6931;51.100;17.068;2022-07-05T06:20:07;100405.09;;;20.24;82.52
13719;BME280;6931;51.100;17.068;2022-07-05T06:22:34;100393.91;;;20.42;82.53
13719;BME280;6931;51.100;17.068;2022-07-05T06:25:02;100400.34;;;20.21;81.92
13719;BME280;6931;51.100;17.068;2022-07-05T06:30:19;100409.84;;;20.14;82.68
13719;BME280;6931;51.100;17.068;2022-07-05T06:32:47;100395.75;;;20.02;82.53
13719;BME280;6931;51.100;17.068;2022-07-05T06:35:14;100401.34;;;20.27;82.69
13719;BME280;6931;51.100;17.068;2022-07-05T06:37:47;100401.09;;;20.34;82.78
13719;BME280;6931;51.100;17.068;2022-07-05T06:40:19;100407.66;;;20.31;82.68
13719;BME280;6931;51.100;17.068;2022-07-05T06:42:46;100417.84;;;20.28;83.57
13719;BME280;6931;51.100;17.068;2022-07-05T06:45:13;100415.06;;;20.16;85.21
13719;BME280;6931;51.100;17.068;2022-07-05T06:47:40;100425.16;;;20.17;83.19
13719;BME280;6931;51.100;17.068;2022-07-05T06:50:07;100419.13;;;20.27;85.44
13719;BME280;6931;51.100;17.068;2022-07-05T06:52:34;100423.97;;;20.14;86.77
13719;BME280;6931;51.100;17.068;2022-07-05T06:55:01;100439.63;;;20.19;86.95
13719;BME280;6931;51.100;17.068;2022-07-05T06:57:28;100437.44;;;20.23;87.33
13719;BME280;6931;51.100;17.068;2022-07-05T06:59:57;100438.38;;;20.41;86.31
13719;BME280;6931;51.100;17.068;2022-07-05T07:02:25;100438.13;;;20.48;86.05
13719;BME280;6931;51.100;17.068;2022-07-05T07:04:52;100432.94;;;20.47;86.90
13719;BME280;6931;51.100;17.068;2022-07-05T07:07:37;100442.53;;;20.71;85.51
13719;BME280;6931;51.100;17.068;2022-07-05T07:10:22;100447.59;;;20.76;85.69
13719;BME280;6931;51.100;17.068;2022-07-05T07:12:54;100450.44;;;20.55;87.16
13719;BME280;6931;51.100;17.068;2022-07-05T07:15:21;100441.75;;;20.49;87.97
13719;BME280;6931;51.100;17.068;2022-07-05T07:17:47;100455.72;;;20.65;87.57
13719;BME280;6931;51.100;17.068;2022-07-05T07:20:14;100464.41;;;20.49;88.93
13719;BME280;6931;51.100;17.068;2022-07-05T07:22:41;100447.03;;;20.38;90.21
13719;BME280;6931;51.100;17.068;2022-07-05T07:25:08;100439.78;;;20.37;89.26
13719;BME280;6931;51.100;17.068;2022-07-05T07:27:45;100446.69;;;20.36;84.88
13719;BME280;6931;51.100;17.068;2022-07-05T07:30:13;100445.97;;;20.44;85.40
13719;BME280;6931;51.100;17.068;2022-07-05T07:32:41;100455.19;;;20.58;85.61
13719;BME280;6931;51.100;17.068;2022-07-05T07:35:09;100457.81;;;20.52;84.17
13719;BME280;6931;51.100;17.068;2022-07-05T07:37:36;100457.56;;;20.37;84.11
13719;BME280;6931;51.100;17.068;2022-07-05T07:40:04;100462.56;;;20.55;84.78
13719;BME280;6931;51.100;17.068;2022-07-05T07:42:31;100464.56;;;20.67;84.44
13719;BME280;6931;51.100;17.068;2022-07-05T07:44:58;100461.69;;;20.11;82.27
13719;BME280;6931;51.100;17.068;2022-07-05T07:47:24;100461.88;;;20.29;83.29
13719;BME280;6931;51.100;17.068;2022-07-05T07:49:51;100463.19;;;20.03;82.59
13719;BME280;6931;51.100;17.068;2022-07-05T07:52:18;100463.03;;;20.19;82.24
13719;BME280;6931;51.100;17.068;2022-07-05T07:54:44;100468.66;;;20.32;82.01
13719;BME280;6931;51.100;17.068;2022-07-05T07:57:11;100459.50;;;20.28;85.14
13719;BME280;6931;51.100;17.068;2022-07-05T07:59:38;100471.41;;;20.23;82.41
13719;BME280;6931;51.100;17.068;2022-07-05T08:02:05;100463.94;;;20.04;81.35
13719;BME280;6931;51.100;17.068;2022-07-05T08:04:32;100455.00;;;20.05;80.45
13719;BME280;6931;51.100;17.068;2022-07-05T08:06:58;100448.75;;;20.23;80.16
13719;BME280;6931;51.100;17.068;2022-07-05T08:09:25;100460.22;;;20.07;80.35
13719;BME280;6931;51.100;17.068;2022-07-05T08:11:52;100456.16;;;20.08;78.80
13719;BME280;6931;51.100;17.068;2022-07-05T08:14:18;100455.69;;;20.09;79.76
13719;BME280;6931;51.100;17.068;2022-07-05T08:16:47;100462.63;;;19.83;79.97
13719;BME280;6931;51.100;17.068;2022-07-05T08:19:18;100460.97;;;19.73;80.67
13719;BME280;6931;51.100;17.068;2022-07-05T08:22:05;100459.25;;;19.76;81.33
13719;BME280;6931;51.100;17.068;2022-07-05T08:24:38;100464.25;;;19.72;82.11
13719;BME280;6931;51.100;17.068;2022-07-05T08:27:09;100458.03;;;19.64;81.64
13719;BME280;6931;51.100;17.068;2022-07-05T08:29:36;100464.25;;;19.72;81.84
13719;BME280;6931;51.100;17.068;2022-07-05T08:32:03;100472.28;;;19.61;77.98
13719;BME280;6931;51.100;17.068;2022-07-05T08:34:30;100475.00;;;19.52;78.00
13719;BME280;6931;51.100;17.068;2022-07-05T08:36:57;100472.84;;;19.43;76.93
13719;BME280;6931;51.100;17.068;2022-07-05T08:39:23;100470.88;;;19.27;76.78
13719;BME280;6931;51.100;17.068;2022-07-05T08:41:51;100466.16;;;19.24;78.28
13719;BME280;6931;51.100;17.068;2022-07-05T08:44:19;100462.41;;;19.27;79.52
13719;BME280;6931;51.100;17.068;2022-07-05T08:46:47;100472.34;;;19.19;79.90
13719;BME280;6931;51.100;17.068;2022-07-05T08:49:14;100472.34;;;19.19;81.31
13719;BME280;6931;51.100;17.068;2022-07-05T08:51:42;100470.25;;;18.82;81.76
13719;BME280;6931;51.100;17.068;2022-07-05T08:54:11;100470.72;;;18.93;82.55
13719;BME280;6931;51.100;17.068;2022-07-05T08:56:42;100470.63;;;18.97;82.07
13719;BME280;6931;51.100;17.068;2022-07-05T08:59:29;100479.22;;;19.06;85.16
13719;BME280;6931;51.100;17.068;2022-07-05T09:01:56;100482.69;;;19.38;83.81
13719;BME280;6931;51.100;17.068;2022-07-05T09:04:30;100477.72;;;19.43;83.71
13719;BME280;6931;51.100;17.068;2022-07-05T09:07:02;100487.50;;;19.25;83.01
13719;BME280;6931;51.100;17.068;2022-07-05T09:09:32;100490.31;;;19.13;83.32
13719;BME280;6931;51.100;17.068;2022-07-05T09:11:59;100490.88;;;19.20;85.56
13719;BME280;6931;51.100;17.068;2022-07-05T09:14:46;100494.22;;;19.31;85.54
13719;BME280;6931;51.100;17.068;2022-07-05T09:17:13;100479.81;;;18.72;84.96
13719;BME280;6931;51.100;17.068;2022-07-05T09:19:41;100475.38;;;19.00;83.97
13719;BME280;6931;51.100;17.068;2022-07-05T09:22:08;100476.09;;;18.75;83.64
13719;BME280;6931;51.100;17.068;2022-07-05T09:24:45;100484.31;;;19.11;84.08
13719;BME280;6931;51.100;17.068;2022-07-05T09:27:13;100479.78;;;19.01;85.28
13719;BME280;6931;51.100;17.068;2022-07-05T09:29:53;100489.34;;;18.78;83.79
13719;BME280;6931;51.100;17.068;2022-07-05T09:32:27;100475.53;;;18.68;83.74
13719;BME280;6931;51.100;17.068;2022-07-05T09:34:56;100477.91;;;18.69;83.32
13719;BME280;6931;51.100;17.068;2022-07-05T09:37:43;100483.03;;;18.87;83.60
13719;BME280;6931;51.100;17.068;2022-07-05T09:40:12;100476.41;;;19.06;84.12
13719;BME280;6931;51.100;17.068;2022-07-05T09:42:45;100481.94;;;19.09;83.18
13719;BME280;6931;51.100;17.068;2022-07-05T09:45:23;100478.66;;;18.98;84.43
13719;BME280;6931;51.100;17.068;2022-07-05T09:47:53;100475.59;;;19.05;83.77
13719;BME280;6931;51.100;17.068;2022-07-05T09:50:40;100472.09;;;19.01;82.08
13719;BME280;6931;51.100;17.068;2022-07-05T09:53:44;100480.47;;;19.17;83.13
13719;BME280;6931;51.100;17.068;2022-07-05T09:56:10;100476.84;;;19.17;83.96
13719;BME280;6931;51.100;17.068;2022-07-05T09:58:37;100487.25;;;19.07;84.69
13719;BME280;6931;51.100;17.068;2022-07-05T10:01:29;100488.38;;;19.10;84.16
13719;BME280;6931;51.100;17.068;2022-07-05T10:04:01;100492.88;;;18.95;84.16
13719;BME280;6931;51.100;17.068;2022-07-05T10:06:32;100497.66;;;19.10;83.84
13719;BME280;6931;51.100;17.068;2022-07-05T10:08:59;100485.34;;;19.17;83.39
13719;BME280;6931;51.100;17.068;2022-07-05T10:11:26;100487.34;;;19.04;83.04
13719;BME280;6931;51.100;17.068;2022-07-05T10:13:58;100491.94;;;18.85;84.58
13719;BME280;6931;51.100;17.068;2022-07-05T10:16:25;100499.97;;;18.87;85.33
13719;BME280;6931;51.100;17.068;2022-07-05T10:18:53;100489.97;;;19.11;85.07
13719;BME280;6931;51.100;17.068;2022-07-05T10:21:21;100494.47;;;18.96;86.12
13719;BME280;6931;51.100;17.068;2022-07-05T10:23:50;100495.47;;;19.30;84.65
13719;BME280;6931;51.100;17.068;2022-07-05T10:26:20;100490.59;;;19.44;83.04
13719;BME280;6931;51.100;17.068;2022-07-05T10:28:50;100491.59;;;19.75;81.90
13719;BME280;6931;51.100;17.068;2022-07-05T10:31:23;100487.84;;;19.90;82.30
13719;BME280;6931;51.100;17.068;2022-07-05T10:33:51;100488.53;;;19.82;83.93
13719;BME280;6931;51.100;17.068;2022-07-05T10:36:19;100486.97;;;19.81;83.54
13719;BME280;6931;51.100;17.068;2022-07-05T10:38:46;100488.69;;;19.53;83.79
13719;BME280;6931;51.100;17.068;2022-07-05T10:41:18;100483.59;;;19.61;84.35
13719;BME280;6931;51.100;17.068;2022-07-05T10:43:53;100486.53;;;19.70;84.10
13719;BME280;6931;51.100;17.068;2022-07-05T10:46:35;100479.38;;;19.90;84.68
13719;BME280;6931;51.100;17.068;2022-07-05T10:49:14;100484.03;;;19.72;82.54
13719;BME280;6931;51.100;17.068;2022-07-05T10:51:41;100484.03;;;19.84;81.61
13719;BME280;6931;51.100;17.068;2022-07-05T10:54:09;100473.75;;;19.53;82.44
13719;BME280;6931;51.100;17.068;2022-07-05T10:56:36;100489.53;;;20.00;82.21
13719;BME280;6931;51.100;17.068;2022-07-05T10:59:10;100484.84;;;20.31;81.71
13719;BME280;6931;51.100;17.068;2022-07-05T11:01:40;100486.47;;;20.20;80.41
13719;BME280;6931;51.100;17.068;2022-07-05T11:04:15;100479.72;;;19.67;78.70
13719;BME280;6931;51.100;17.068;2022-07-05T11:06:45;100485.13;;;19.99;79.29
13719;BME280;6931;51.100;17.068;2022-07-05T11:09:18;100490.34;;;19.88;79.81
13719;BME280;6931;51.100;17.068;2022-07-05T11:14:37;100485.84;;;19.78;78.16
13719;BME280;6931;51.100;17.068;2022-07-05T11:17:18;100485.59;;;19.73;79.31
13719;BME280;6931;51.100;17.068;2022-07-05T11:23:00;100485.84;;;19.78;79.17
13719;BME280;6931;51.100;17.068;2022-07-05T11:25:29;100469.09;;;19.71;79.89
13719;BME280;6931;51.100;17.068;2022-07-05T11:28:16;100473.16;;;19.83;79.20
13719;BME280;6931;51.100;17.068;2022-07-05T11:30:49;100476.09;;;19.92;79.99
13719;BME280;6931;51.100;17.068;2022-07-05T11:33:27;100484.22;;;19.90;78.68
13719;BME280;6931;51.100;17.068;2022-07-05T11:35:56;100479.31;;;19.69;76.92
13719;BME280;6931;51.100;17.068;2022-07-05T11:38:23;100478.34;;;19.97;77.60
13719;BME280;6931;51.100;17.068;2022-07-05T11:40:55;100476.09;;;19.92;80.04
13719;BME280;6931;51.100;17.068;2022-07-05T11:43:29;100475.44;;;19.88;79.21
13719;BME280;6931;51.100;17.068;2022-07-05T11:45:58;100481.75;;;19.79;80.33
13719;BME280;6931;51.100;17.068;2022-07-05T11:48:27;100480.06;;;19.94;80.95
13719;BME280;6931;51.100;17.068;2022-07-05T11:50:54;100475.38;;;20.00;77.91
13719;BME280;6931;51.100;17.068;2022-07-05T11:53:29;100478.31;;;20.09;79.63
13719;BME280;6931;51.100;17.068;2022-07-05T11:56:17;100479.97;;;20.32;79.83
13719;BME280;6931;51.100;17.068;2022-07-05T11:58:44;100471.97;;;20.52;77.00
13719;BME280;6931;51.100;17.068;2022-07-05T12:01:11;100470.09;;;20.71;74.49
13719;BME280;6931;51.100;17.068;2022-07-05T12:03:37;100467.88;;;20.96;74.95
13719;BME280;6931;51.100;17.068;2022-07-05T12:06:12;100461.47;;;20.74;77.09
13719;BME280;6931;51.100;17.068;2022-07-05T12:08:39;100469.09;;;20.86;75.30
13719;BME280;6931;51.100;17.068;2022-07-05T12:11:06;100459.28;;;21.30;75.51
13719;BME280;6931;51.100;17.068;2022-07-05T12:13:54;100455.97;;;21.32;75.36
13719;BME280;6931;51.100;17.068;2022-07-05T12:16:20;100454.19;;;21.16;74.06
13719;BME280;6931;51.100;17.068;2022-07-05T12:18:55;100459.00;;;21.37;73.66
13719;BME280;6931;51.100;17.068;2022-07-05T12:21:23;100464.81;;;21.74;73.13
13719;BME280;6931;51.100;17.068;2022-07-05T12:23:51;100462.72;;;22.05;72.30
13719;BME280;6931;51.100;17.068;2022-07-05T12:26:18;100458.81;;;21.72;73.48
13719;BME280;6931;51.100;17.068;2022-07-05T12:28:46;100470.47;;;21.74;71.12
13719;BME280;6931;51.100;17.068;2022-07-05T12:31:17;100451.19;;;21.90;69.77
13719;BME280;6931;51.100;17.068;2022-07-05T12:33:44;100457.16;;;21.43;71.09
13719;BME280;6931;51.100;17.068;2022-07-05T12:36:16;100463.50;;;22.23;68.13
13719;BME280;6931;51.100;17.068;2022-07-05T12:38:43;68515.09;;;-140.71;100.00
13719;BME280;6931;51.100;17.068;2022-07-05T12:41:10;100458.66;;;22.69;69.83
13719;BME280;6931;51.100;17.068;2022-07-05T12:43:54;100456.69;;;23.11;69.47
13719;BME280;6931;51.100;17.068;2022-07-05T12:46:37;100455.59;;;23.00;68.25
13719;BME280;6931;51.100;17.068;2022-07-05T12:49:09;100439.91;;;23.22;68.07
13719;BME280;6931;51.100;17.068;2022-07-05T12:51:39;100450.16;;;23.38;68.71
13719;BME280;6931;51.100;17.068;2022-07-05T12:54:07;100440.75;;;23.55;68.05
13719;BME280;6931;51.100;17.068;2022-07-05T12:56:53;100438.84;;;23.85;65.09
13719;BME280;6931;51.100;17.068;2022-07-05T13:00:07;100449.50;;;22.65;63.56
13719;BME280;6931;51.100;17.068;2022-07-05T13:02:38;100450.69;;;23.09;67.45
13719;BME280;6931;51.100;17.068;2022-07-05T13:05:07;100442.31;;;23.15;65.36
13719;BME280;6931;51.100;17.068;2022-07-05T13:07:42;100447.09;;;23.50;66.98
13719;BME280;6931;51.100;17.068;2022-07-05T13:10:19;100437.56;;;23.62;64.41
13719;BME280;6931;51.100;17.068;2022-07-05T13:12:47;100437.00;;;23.49;63.28